sensor_id;sensor_type;location;lat;lon;timestamp;temperature;humidity
40538;DHT22;27925;41.874;12.526;2024-02-14T00:01:11;11.30;61.70
40538;DHT22;27925;41.874;12.526;2024-02-14T00:03:37;11.30;61.80
40538;DHT22;27925;41.874;12.526;2024-02-14T00:06:04;11.30;61.80
40538;DHT22;27925;41.874;12.526;2024-02-14T00:08:31;11.30;61.90
40538;DHT22;27925;41.874;12.526;2024-02-14T00:10:57;11.30;61.90
40538;DHT22;27925;41.874;12.526;2024-02-14T00:13:22;11.30;61.90
40538;DHT22;27925;41.874;12.526;2024-02-14T00:15:48;11.30;62.00
40538;DHT22;27925;41.874;12.526;2024-02-14T00:18:14;11.30;62.00
40538;DHT22;27925;41.874;12.526;2024-02-14T00:20:41;11.30;62.00
40538;DHT22;27925;41.874;12.526;2024-02-14T00:23:06;11.20;62.00
40538;DHT22;27925;41.874;12.526;2024-02-14T00:25:32;11.20;62.00
40538;DHT22;27925;41.874;12.526;2024-02-14T00:27:58;11.10;61.90
40538;DHT22;27925;41.874;12.526;2024-02-14T00:30:26;11.10;62.00
40538;DHT22;27925;41.874;12.526;2024-02-14T00:32:52;11.10;61.90
40538;DHT22;27925;41.874;12.526;2024-02-14T00:35:18;11.10;61.80
40538;DHT22;27925;41.874;12.526;2024-02-14T00:37:43;11.10;61.70
40538;DHT22;27925;41.874;12.526;2024-02-14T00:40:09;11.10;61.80
40538;DHT22;27925;41.874;12.526;2024-02-14T00:42:36;11.10;61.80
40538;DHT22;27925;41.874;12.526;2024-02-14T00:45:02;11.10;61.80
40538;DHT22;27925;41.874;12.526;2024-02-14T00:47:28;11.10;62.00
40538;DHT22;27925;41.874;12.526;2024-02-14T00:49:54;11.10;61.80
40538;DHT22;27925;41.874;12.526;2024-02-14T00:52:20;11.10;61.80
40538;DHT22;27925;41.874;12.526;2024-02-14T00:54:47;11.10;61.80
40538;DHT22;27925;41.874;12.526;2024-02-14T00:57:13;11.10;61.80
40538;DHT22;27925;41.874;12.526;2024-02-14T00:59:38;11.10;61.90
40538;DHT22;27925;41.874;12.526;2024-02-14T01:02:04;11.10;62.00
40538;DHT22;27925;41.874;12.526;2024-02-14T01:04:30;11.00;61.90
40538;DHT22;27925;41.874;12.526;2024-02-14T01:06:55;11.00;62.20
40538;DHT22;27925;41.874;12.526;2024-02-14T01:09:21;11.00;62.10
40538;DHT22;27925;41.874;12.526;2024-02-14T01:11:47;11.00;62.30
40538;DHT22;27925;41.874;12.526;2024-02-14T01:14:14;10.90;62.10
40538;DHT22;27925;41.874;12.526;2024-02-14T01:16:44;10.90;62.40
40538;DHT22;27925;41.874;12.526;2024-02-14T01:19:10;10.80;62.30
40538;DHT22;27925;41.874;12.526;2024-02-14T01:21:36;10.80;62.60
40538;DHT22;27925;41.874;12.526;2024-02-14T01:24:02;10.70;62.60
40538;DHT22;27925;41.874;12.526;2024-02-14T01:26:28;10.70;62.80
40538;DHT22;27925;41.874;12.526;2024-02-14T01:28:53;10.70;62.90
40538;DHT22;27925;41.874;12.526;2024-02-14T01:31:19;10.70;63.10
40538;DHT22;27925;41.874;12.526;2024-02-14T01:33:46;10.70;63.10
40538;DHT22;27925;41.874;12.526;2024-02-14T01:36:11;10.60;63.30
40538;DHT22;27925;41.874;12.526;2024-02-14T01:38:37;10.70;63.50
40538;DHT22;27925;41.874;12.526;2024-02-14T01:41:04;10.60;63.40
40538;DHT22;27925;41.874;12.526;2024-02-14T01:43:30;10.60;63.50
40538;DHT22;27925;41.874;12.526;2024-02-14T01:46:06;10.50;63.60
40538;DHT22;27925;41.874;12.526;2024-02-14T01:48:34;10.50;64.00
40538;DHT22;27925;41.874;12.526;2024-02-14T01:51:01;10.50;64.00
40538;DHT22;27925;41.874;12.526;2024-02-14T01:53:28;10.50;64.10
40538;DHT22;27925;41.874;12.526;2024-02-14T01:55:57;10.50;64.20
40538;DHT22;27925;41.874;12.526;2024-02-14T01:58:24;10.50;64.30
40538;DHT22;27925;41.874;12.526;2024-02-14T02:00:51;10.50;64.20
40538;DHT22;27925;41.874;12.526;2024-02-14T02:03:25;10.50;64.20
40538;DHT22;27925;41.874;12.526;2024-02-14T02:05:54;10.50;64.30
40538;DHT22;27925;41.874;12.526;2024-02-14T02:08:20;10.40;64.30
40538;DHT22;27925;41.874;12.526;2024-02-14T02:10:46;10.40;64.50
40538;DHT22;27925;41.874;12.526;2024-02-14T02:13:13;10.30;64.50
40538;DHT22;27925;41.874;12.526;2024-02-14T02:15:41;10.30;64.50
40538;DHT22;27925;41.874;12.526;2024-02-14T02:18:10;10.30;64.80
40538;DHT22;27925;41.874;12.526;2024-02-14T02:20:36;10.30;64.90
40538;DHT22;27925;41.874;12.526;2024-02-14T02:23:02;10.30;65.00
40538;DHT22;27925;41.874;12.526;2024-02-14T02:25:28;10.20;64.90
40538;DHT22;27925;41.874;12.526;2024-02-14T02:27:53;10.20;65.10
40538;DHT22;27925;41.874;12.526;2024-02-14T02:30:22;10.20;65.10
40538;DHT22;27925;41.874;12.526;2024-02-14T02:32:48;10.10;65.30
40538;DHT22;27925;41.874;12.526;2024-02-14T02:35:15;10.10;65.20
40538;DHT22;27925;41.874;12.526;2024-02-14T02:37:41;10.10;65.30
40538;DHT22;27925;41.874;12.526;2024-02-14T02:40:08;10.10;65.50
40538;DHT22;27925;41.874;12.526;2024-02-14T02:42:36;10.00;65.50
40538;DHT22;27925;41.874;12.526;2024-02-14T02:45:02;10.00;65.60
40538;DHT22;27925;41.874;12.526;2024-02-14T02:47:33;10.00;65.70
40538;DHT22;27925;41.874;12.526;2024-02-14T02:49:59;10.00;65.80
40538;DHT22;27925;41.874;12.526;2024-02-14T02:52:27;10.00;65.80
40538;DHT22;27925;41.874;12.526;2024-02-14T02:54:53;10.00;65.70
40538;DHT22;27925;41.874;12.526;2024-02-14T02:57:19;10.00;65.90
40538;DHT22;27925;41.874;12.526;2024-02-14T02:59:45;10.00;65.80
40538;DHT22;27925;41.874;12.526;2024-02-14T03:02:14;9.90;66.90
40538;DHT22;27925;41.874;12.526;2024-02-14T03:04:41;9.80;66.80
40538;DHT22;27925;41.874;12.526;2024-02-14T03:07:08;9.90;67.10
40538;DHT22;27925;41.874;12.526;2024-02-14T03:09:34;9.80;67.00
40538;DHT22;27925;41.874;12.526;2024-02-14T03:12:02;9.90;67.10
40538;DHT22;27925;41.874;12.526;2024-02-14T03:14:32;9.80;67.10
40538;DHT22;27925;41.874;12.526;2024-02-14T03:17:04;9.80;67.20
40538;DHT22;27925;41.874;12.526;2024-02-14T03:19:30;9.70;67.20
40538;DHT22;27925;41.874;12.526;2024-02-14T03:21:56;9.70;67.30
40538;DHT22;27925;41.874;12.526;2024-02-14T03:24:23;9.70;67.30
40538;DHT22;27925;41.874;12.526;2024-02-14T03:26:51;9.60;67.00
40538;DHT22;27925;41.874;12.526;2024-02-14T03:29:19;9.60;67.00
40538;DHT22;27925;41.874;12.526;2024-02-14T03:31:45;9.60;66.80
40538;DHT22;27925;41.874;12.526;2024-02-14T03:34:11;9.60;67.20
40538;DHT22;27925;41.874;12.526;2024-02-14T03:36:37;9.60;67.10
40538;DHT22;27925;41.874;12.526;2024-02-14T03:39:04;9.50;67.20
40538;DHT22;27925;41.874;12.526;2024-02-14T03:41:31;9.50;67.20
40538;DHT22;27925;41.874;12.526;2024-02-14T03:43:57;9.40;67.10
40538;DHT22;27925;41.874;12.526;2024-02-14T03:46:27;9.50;67.10
40538;DHT22;27925;41.874;12.526;2024-02-14T03:48:54;9.40;67.00
40538;DHT22;27925;41.874;12.526;2024-02-14T03:51:20;9.40;66.90
40538;DHT22;27925;41.874;12.526;2024-02-14T03:53:46;9.40;66.90
40538;DHT22;27925;41.874;12.526;2024-02-14T03:56:12;9.40;67.10
40538;DHT22;27925;41.874;12.526;2024-02-14T03:58:41;9.40;67.00
40538;DHT22;27925;41.874;12.526;2024-02-14T04:01:07;9.40;66.90
40538;DHT22;27925;41.874;12.526;2024-02-14T04:03:33;9.40;66.80
40538;DHT22;27925;41.874;12.526;2024-02-14T04:05:59;9.40;67.00
40538;DHT22;27925;41.874;12.526;2024-02-14T04:08:25;9.40;66.90
40538;DHT22;27925;41.874;12.526;2024-02-14T04:10:50;9.40;67.00
40538;DHT22;27925;41.874;12.526;2024-02-14T04:13:16;9.50;67.00
40538;DHT22;27925;41.874;12.526;2024-02-14T04:15:42;9.40;66.90
40538;DHT22;27925;41.874;12.526;2024-02-14T04:18:12;9.40;66.80
40538;DHT22;27925;41.874;12.526;2024-02-14T04:20:38;9.40;67.20
40538;DHT22;27925;41.874;12.526;2024-02-14T04:23:04;9.30;67.10
40538;DHT22;27925;41.874;12.526;2024-02-14T04:25:33;9.30;67.20
40538;DHT22;27925;41.874;12.526;2024-02-14T04:27:59;9.30;67.20
40538;DHT22;27925;41.874;12.526;2024-02-14T04:30:25;9.40;67.40
40538;DHT22;27925;41.874;12.526;2024-02-14T04:32:51;9.30;67.40
40538;DHT22;27925;41.874;12.526;2024-02-14T04:35:19;9.30;67.20
40538;DHT22;27925;41.874;12.526;2024-02-14T04:37:45;9.30;67.30
40538;DHT22;27925;41.874;12.526;2024-02-14T04:40:13;9.30;67.50
40538;DHT22;27925;41.874;12.526;2024-02-14T04:42:40;9.30;67.50
40538;DHT22;27925;41.874;12.526;2024-02-14T04:45:06;9.20;67.40
40538;DHT22;27925;41.874;12.526;2024-02-14T04:47:32;9.20;67.70
40538;DHT22;27925;41.874;12.526;2024-02-14T04:49:58;9.20;67.60
40538;DHT22;27925;41.874;12.526;2024-02-14T04:52:24;9.10;67.70
40538;DHT22;27925;41.874;12.526;2024-02-14T04:54:49;9.10;67.70
40538;DHT22;27925;41.874;12.526;2024-02-14T04:57:15;9.10;67.70
40538;DHT22;27925;41.874;12.526;2024-02-14T23:00:21;11.90;71.60
40538;DHT22;27925;41.874;12.526;2024-02-14T23:02:49;11.90;71.50
40538;DHT22;27925;41.874;12.526;2024-02-14T23:05:16;11.80;71.30
40538;DHT22;27925;41.874;12.526;2024-02-14T23:07:46;11.80;71.30
40538;DHT22;27925;41.874;12.526;2024-02-14T23:10:13;11.70;71.00
40538;DHT22;27925;41.874;12.526;2024-02-14T23:12:42;11.70;71.10
40538;DHT22;27925;41.874;12.526;2024-02-14T23:15:07;11.60;70.70
40538;DHT22;27925;41.874;12.526;2024-02-14T23:17:34;11.60;70.70
40538;DHT22;27925;41.874;12.526;2024-02-14T23:20:01;11.60;70.90
40538;DHT22;27925;41.874;12.526;2024-02-14T23:22:27;11.50;70.40
40538;DHT22;27925;41.874;12.526;2024-02-14T23:24:53;11.50;70.20
40538;DHT22;27925;41.874;12.526;2024-02-14T23:27:20;11.50;70.10
40538;DHT22;27925;41.874;12.526;2024-02-14T23:29:48;11.50;70.10
40538;DHT22;27925;41.874;12.526;2024-02-14T23:32:13;11.40;69.80
40538;DHT22;27925;41.874;12.526;2024-02-14T23:34:39;11.40;69.80
40538;DHT22;27925;41.874;12.526;2024-02-14T23:37:05;11.40;69.60
40538;DHT22;27925;41.874;12.526;2024-02-14T23:39:31;11.30;69.30
40538;DHT22;27925;41.874;12.526;2024-02-14T23:41:56;11.30;69.20
40538;DHT22;27925;41.874;12.526;2024-02-14T23:44:22;11.30;68.70
40538;DHT22;27925;41.874;12.526;2024-02-14T23:46:48;11.20;68.60
40538;DHT22;27925;41.874;12.526;2024-02-14T23:49:14;11.20;68.80
40538;DHT22;27925;41.874;12.526;2024-02-14T23:51:40;11.30;68.70
40538;DHT22;27925;41.874;12.526;2024-02-14T23:54:06;11.30;68.50
40538;DHT22;27925;41.874;12.526;2024-02-14T23:56:32;11.30;68.30
40538;DHT22;27925;41.874;12.526;2024-02-14T23:58:57;11.30;68.00
